LLBG/TLV METAR and TAF weather

Enter ICAO airport designator
Station Type Date Time Source
LLBG METAR 2022/01/27 22:20 UTC NOAA

LLBG 272220Z 20009KT 6000 SHRA FEW015TCU BKN025 09/08 Q1022 RERA NOSIG


Station Type Date Time Source
LLBG Decoded METAR 2022/01/27 22:20 UTC NOAA

Ben-Gurion International Airport, Israel (LLBG) 32-00N 034-54E 49M
Jan 27, 2022 - 05:20 PM EST / 2022.01.27 2220 UTC
Wind: from the SSW (200 degrees) at 10 MPH (9 KT):0
Visibility: 3 mile(s):0
Sky conditions: mostly cloudy
Weather: rain showers; Towering cumulus clouds observed
Temperature: 48 F (9 C)
Dew Point: 46 F (8 C)
Relative Humidity: 93%
Pressure (altimeter): 30.18 in. Hg (1022 hPa)
ob: LLBG 272220Z 20009KT 6000 SHRA FEW015TCU BKN025 09/08 Q1022 RERA NOSIG
cycle: 22

Station Type Date Time Source
LLBG TAF 2022/01/27 18:09 UTC NOAA

TAF TAF LLBG 271706Z 2718/2818 18010KT 9999 BKN045
TEMPO 2718/2812 24015G25KT 6000 RA FEW015 SCT025TCU BKN030
TEMPO 2812/2818 25020G30KT 5000 TSRA SCT015 FEW020CB BKN030 TX11/2812Z TN07/2804Z

Example: see airport list